Time;durP1;ratioP1;P1;durP2;ratioP2;P2;SDS_P1;SDS_P2;PMS_P1;PMS_P2;Temp;Humidity;BMP_temperature;BMP_pressure;BME280_temperature;BME280_humidity;BME280_pressure;Samples;Min_cycle;Max_cycle;Signal;HPM_P1;HPM_P2
2023/08/23 00:01:20;;;;;;;28.65;15.38;;;;;;;;;;4939603;29;20051;-81
2023/08/23 00:03:58;;;;;;;28.67;15.20;;;;;;;;;;4950328;29;20051;-82
2023/08/23 00:06:32;;;;;;;28.08;14.73;;;;;;;;;;4950668;29;20042;-81
2023/08/23 00:09:05;;;;;;;31.77;15.50;;;;;;;;;;4950779;28;20526;-80
2023/08/23 00:11:35;;;;;;;27.15;14.77;;;;;;;;;;4932445;29;20043;-82
2023/08/23 00:14:06;;;;;;;32.22;14.98;;;;;;;;;;4954255;29;20047;-81
2023/08/23 00:16:40;;;;;;;27.42;14.32;;;;;;;;;;4938956;29;20047;-80
2023/08/23 00:19:10;;;;;;;33.08;15.93;;;;;;;;;;4952566;29;20039;-82
2023/08/23 00:21:40;;;;;;;30.73;15.00;;;;;;;;;;4954667;29;20054;-80
2023/08/23 00:24:11;;;;;;;28.15;14.10;;;;;;;;;;4954305;29;20631;-81
2023/08/23 00:26:44;;;;;;;27.85;15.23;;;;;;;;;;4952254;29;20047;-80
2023/08/23 00:29:15;;;;;;;27.30;15.95;;;;;;;;;;4954863;29;20126;-81
2023/08/23 00:31:46;;;;;;;24.85;14.88;;;;;;;;;;4932480;29;20054;-82
2023/08/23 00:34:17;;;;;;;28.42;14.05;;;;;;;;;;4937475;29;20538;-80
2023/08/23 00:36:48;;;;;;;24.75;14.63;;;;;;;;;;4922702;29;20085;-80
2023/08/23 00:39:19;;;;;;;29.27;14.32;;;;;;;;;;4954707;29;20043;-80
2023/08/23 00:41:49;;;;;;;25.70;14.95;;;;;;;;;;4954680;29;20044;-79
2023/08/23 00:44:20;;;;;;;29.08;15.63;;;;;;;;;;4935441;29;20055;-81
2023/08/23 00:46:52;;;;;;;28.23;14.75;;;;;;;;;;4924428;29;20067;-81
2023/08/23 00:49:24;;;;;;;25.65;14.40;;;;;;;;;;4916406;29;20048;-81
2023/08/23 00:51:54;;;;;;;27.65;15.20;;;;;;;;;;4930716;29;20059;-82
2023/08/23 00:54:26;;;;;;;27.35;15.13;;;;;;;;;;4917925;29;20059;-82
2023/08/23 00:57:03;;;;;;;25.58;14.25;;;;;;;;;;4934754;29;20040;-82
2023/08/23 00:59:36;;;;;;;28.10;15.30;;;;;;;;;;4917952;29;20056;-83
2023/08/23 01:02:06;;;;;;;25.02;14.68;;;;;;;;;;4917216;29;20406;-80
2023/08/23 01:04:38;;;;;;;;;;;;;;;;;;4934861;29;20047;-82
2023/08/23 01:07:16;;;;;;;27.77;13.40;;;;;;;;;;4934695;29;20293;-82
2023/08/23 01:10:09;;;;;;;26.77;14.50;;;;;;;;;;4917544;29;20052;-81
2023/08/23 01:12:54;;;;;;;27.05;14.45;;;;;;;;;;4917280;29;20414;-81
2023/08/23 01:15:30;;;;;;;28.25;15.02;;;;;;;;;;4917516;29;20066;-83
2023/08/23 01:18:05;;;;;;;27.30;14.93;;;;;;;;;;4910627;29;20499;-81
2023/08/23 01:20:37;;;;;;;26.10;14.40;;;;;;;;;;4917500;29;20043;-82
2023/08/23 01:23:14;;;;;;;27.65;14.90;;;;;;;;;;4917858;29;20577;-81
2023/08/23 01:25:54;;;;;;;25.20;14.45;;;;;;;;;;4934596;29;20048;-81
2023/08/23 01:28:28;;;;;;;29.77;15.20;;;;;;;;;;4917310;29;20051;-82
2023/08/23 01:31:04;;;;;;;28.67;15.90;;;;;;;;;;4934587;29;20054;-82
2023/08/23 01:33:44;;;;;;;29.90;15.55;;;;;;;;;;4918060;29;20044;-80
2023/08/23 01:36:29;;;;;;;29.20;15.20;;;;;;;;;;4917734;29;20047;-82
2023/08/23 01:39:01;;;;;;;27.55;14.95;;;;;;;;;;4934453;29;20047;-81
2023/08/23 01:41:33;;;;;;;26.23;15.05;;;;;;;;;;4934965;29;20047;-83
2023/08/23 01:44:05;;;;;;;26.95;14.43;;;;;;;;;;4934108;29;20055;-82
2023/08/23 01:46:37;;;;;;;27.63;15.35;;;;;;;;;;4940851;29;20059;-82
2023/08/23 01:49:09;;;;;;;26.25;15.65;;;;;;;;;;4934602;29;20383;-80
2023/08/23 01:51:39;;;;;;;;;;;;;;;;;;4917571;29;20055;-83
2023/08/23 01:54:09;;;;;;;28.65;14.63;;;;;;;;;;4934343;29;19923;-81
2023/08/23 01:56:40;;;;;;;30.73;15.52;;;;;;;;;;4916532;29;20055;-82
2023/08/23 01:59:11;;;;;;;30.65;15.45;;;;;;;;;;4901506;29;20067;-83
2023/08/23 02:01:49;;;;;;;28.58;15.25;;;;;;;;;;4934471;29;20048;-81
2023/08/23 02:04:23;;;;;;;28.63;14.88;;;;;;;;;;4934572;29;20059;-82
2023/08/23 02:06:53;;;;;;;30.15;15.25;;;;;;;;;;4934247;29;20423;-80
2023/08/23 02:09:26;;;;;;;30.63;16.05;;;;;;;;;;4917118;29;20055;-80
2023/08/23 02:11:58;;;;;;;26.55;15.63;;;;;;;;;;4918448;29;20071;-82
2023/08/23 02:14:30;;;;;;;29.75;16.17;;;;;;;;;;4920639;29;20051;-82
2023/08/23 02:17:00;;;;;;;30.58;15.43;;;;;;;;;;4953001;29;20043;-80
2023/08/23 02:19:32;;;;;;;28.88;16.25;;;;;;;;;;4936593;29;20051;-81
2023/08/23 02:22:04;;;;;;;34.17;15.73;;;;;;;;;;4953431;29;20047;-81
2023/08/23 02:24:36;;;;;;;33.05;15.65;;;;;;;;;;4935342;29;20059;-80
2023/08/23 02:27:06;;;;;;;36.17;16.40;;;;;;;;;;4935382;29;20051;-79
2023/08/23 02:29:38;;;;;;;29.15;15.30;;;;;;;;;;4935821;29;20063;-81
2023/08/23 02:32:13;;;;;;;33.70;14.65;;;;;;;;;;4954043;28;20514;-82
2023/08/23 02:34:47;;;;;;;26.88;14.93;;;;;;;;;;4940482;29;20052;-81
2023/08/23 02:37:17;;;;;;;30.20;14.30;;;;;;;;;;4924287;29;20062;-81
2023/08/23 02:39:50;;;;;;;27.65;13.93;;;;;;;;;;4938828;29;20062;-79
2023/08/23 02:42:25;;;;;;;31.17;14.27;;;;;;;;;;4938976;29;20055;-82
2023/08/23 02:44:55;;;;;;;32.08;15.40;;;;;;;;;;4938190;29;20093;-81
2023/08/23 02:47:25;;;;;;;24.60;14.40;;;;;;;;;;4938221;29;20060;-81
2023/08/23 02:49:58;;;;;;;27.20;14.55;;;;;;;;;;4938933;29;20054;-80
2023/08/23 02:52:30;;;;;;;27.20;14.45;;;;;;;;;;4938189;29;20047;-81
2023/08/23 02:55:00;;;;;;;30.88;15.23;;;;;;;;;;4938665;29;20069;-79
2023/08/23 02:57:32;;;;;;;26.08;14.52;;;;;;;;;;4956405;29;20039;-80
2023/08/23 03:00:03;;;;;;;32.33;14.80;;;;;;;;;;4957410;29;20043;-80
2023/08/23 03:02:35;;;;;;;30.58;15.63;;;;;;;;;;4957480;29;20051;-81
2023/08/23 03:05:08;;;;;;;28.35;14.30;;;;;;;;;;4939695;29;20051;-79
2023/08/23 03:07:38;;;;;;;33.58;16.17;;;;;;;;;;4940056;29;20054;-80
2023/08/23 03:10:09;;;;;;;29.20;13.95;;;;;;;;;;4956834;29;20054;-80
2023/08/23 03:12:40;;;;;;;27.90;13.30;;;;;;;;;;4940216;29;20062;-80
2023/08/23 03:15:10;;;;;;;29.02;14.43;;;;;;;;;;4940108;29;20050;-82
2023/08/23 03:17:41;;;;;;;30.60;14.52;;;;;;;;;;4939353;29;20055;-79
2023/08/23 03:20:12;;;;;;;27.50;14.65;;;;;;;;;;4923772;29;20051;-80
2023/08/23 03:22:43;;;;;;;25.42;13.95;;;;;;;;;;4957421;29;20055;-81
2023/08/23 03:25:16;;;;;;;29.23;14.75;;;;;;;;;;4939318;29;20055;-82
2023/08/23 03:27:52;;;;;;;26.70;15.02;;;;;;;;;;4939566;29;20455;-79
2023/08/23 03:30:24;;;;;;;25.13;14.75;;;;;;;;;;4956557;29;20043;-81
2023/08/23 03:32:57;;;;;;;30.50;15.25;;;;;;;;;;4939334;29;20532;-80
2023/08/23 03:35:28;;;;;;;30.63;14.95;;;;;;;;;;4938631;29;20414;-82
2023/08/23 03:38:00;;;;;;;28.48;15.38;;;;;;;;;;4938920;29;20067;-81
2023/08/23 03:40:39;;;;;;;30.25;13.80;;;;;;;;;;4956467;29;20054;-80
2023/08/23 03:43:09;;;;;;;31.88;14.68;;;;;;;;;;4924122;29;20429;-80
2023/08/23 03:45:47;;;;;;;26.48;14.77;;;;;;;;;;4938164;29;20051;-82
2023/08/23 03:48:19;;;;;;;28.23;13.40;;;;;;;;;;4938571;29;20055;-81
2023/08/23 03:50:50;;;;;;;28.73;15.02;;;;;;;;;;4956355;29;20399;-82
2023/08/23 03:53:21;;;;;;;28.65;14.30;;;;;;;;;;4956165;29;20059;-80
2023/08/23 03:55:55;;;;;;;28.33;14.48;;;;;;;;;;4945280;29;20471;-80
2023/08/23 03:58:25;;;;;;;29.00;13.77;;;;;;;;;;4956854;29;20526;-80
2023/08/23 04:00:55;;;;;;;26.27;14.35;;;;;;;;;;4923066;29;20482;-80
2023/08/23 04:03:27;;;;;;;27.83;14.38;;;;;;;;;;4943132;29;20047;-79
2023/08/23 04:06:02;;;;;;;23.80;14.13;;;;;;;;;;4948599;29;20128;-78
2023/08/23 04:08:35;;;;;;;28.70;13.50;;;;;;;;;;4966780;29;20047;-77
2023/08/23 04:11:05;;;;;;;27.88;13.80;;;;;;;;;;4947729;29;20051;-78
2023/08/23 04:13:37;;;;;;;26.42;12.98;;;;;;;;;;4962386;29;20047;-79
2023/08/23 04:16:14;;;;;;;28.30;14.20;;;;;;;;;;4937770;29;20058;-79
2023/08/23 04:18:45;;;;;;;25.33;14.15;;;;;;;;;;4938500;29;20055;-81
2023/08/23 04:21:15;;;;;;;29.38;14.40;;;;;;;;;;4955616;29;20055;-80
2023/08/23 04:23:49;;;;;;;27.10;13.40;;;;;;;;;;4955707;29;20129;-80
2023/08/23 04:26:21;;;;;;;27.92;14.25;;;;;;;;;;4937723;29;20507;-79
2023/08/23 04:28:53;;;;;;;25.98;13.50;;;;;;;;;;4938459;29;20054;-79
2023/08/23 04:31:24;;;;;;;23.08;12.88;;;;;;;;;;4938700;29;20051;-78
2023/08/23 04:34:04;;;;;;;31.85;13.20;;;;;;;;;;4937691;29;20058;-80
2023/08/23 04:36:38;;;;;;;25.58;13.10;;;;;;;;;;4937434;29;20074;-80
2023/08/23 04:39:12;;;;;;;26.58;12.88;;;;;;;;;;4922938;29;20058;-79
2023/08/23 04:41:43;;;;;;;23.20;13.25;;;;;;;;;;4955269;29;20142;-80
2023/08/23 04:44:15;;;;;;;35.70;13.05;;;;;;;;;;4922539;29;20055;-79
2023/08/23 04:46:46;;;;;;;27.92;13.52;;;;;;;;;;4937857;29;20055;-80
2023/08/23 04:49:18;;;;;;;34.95;14.07;;;;;;;;;;4937369;29;20047;-80
2023/08/23 04:51:51;;;;;;;28.17;13.90;;;;;;;;;;4955023;29;20054;-81
2023/08/23 04:54:23;;;;;;;24.63;13.48;;;;;;;;;;4921984;29;20062;-80
2023/08/23 04:56:54;;;;;;;24.27;13.23;;;;;;;;;;4937262;29;20066;-79
2023/08/23 04:59:26;;;;;;;32.90;14.68;;;;;;;;;;4954586;29;20043;-79
2023/08/23 05:01:56;;;;;;;26.42;13.13;;;;;;;;;;4937526;29;20402;-79
2023/08/23 05:04:27;;;;;;;22.42;12.32;;;;;;;;;;4937048;29;20395;-79
2023/08/23 05:07:00;;;;;;;23.50;12.93;;;;;;;;;;4937709;29;20055;-82
2023/08/23 05:09:32;;;;;;;22.77;12.90;;;;;;;;;;4921744;29;20051;-80
2023/08/23 05:12:02;;;;;;;24.98;13.00;;;;;;;;;;4937485;29;20051;-81
2023/08/23 05:14:33;;;;;;;27.02;13.68;;;;;;;;;;4936987;29;20051;-79
2023/08/23 05:17:05;;;;;;;26.75;13.68;;;;;;;;;;4936714;29;20051;-80
2023/08/23 05:19:37;;;;;;;26.40;13.93;;;;;;;;;;4922099;29;20066;-79
2023/08/23 05:22:10;;;;;;;24.55;13.48;;;;;;;;;;4937220;29;20062;-81
2023/08/23 05:24:41;;;;;;;23.58;13.00;;;;;;;;;;4921973;29;20090;-80
2023/08/23 05:27:12;;;;;;;25.17;12.88;;;;;;;;;;4954745;29;20388;-81
2023/08/23 05:29:46;;;;;;;27.38;12.98;;;;;;;;;;4954991;29;20048;-81
2023/08/23 05:32:17;;;;;;;25.15;12.85;;;;;;;;;;4937557;29;20059;-80
2023/08/23 05:34:47;;;;;;;24.27;13.05;;;;;;;;;;4921631;29;20055;-80
2023/08/23 05:37:19;;;;;;;25.98;13.35;;;;;;;;;;4936688;29;20540;-79
2023/08/23 05:39:50;;;;;;;26.67;13.93;;;;;;;;;;4937854;29;20051;-79
2023/08/23 05:42:21;;;;;;;26.13;13.45;;;;;;;;;;4938313;29;20058;-80
2023/08/23 05:44:51;;;;;;;28.35;14.07;;;;;;;;;;4937365;29;20483;-80
2023/08/23 05:47:25;;;;;;;26.08;13.57;;;;;;;;;;4936673;29;20559;-80
2023/08/23 05:50:01;;;;;;;23.88;12.68;;;;;;;;;;4937196;29;20078;-80
2023/08/23 05:52:32;;;;;;;24.40;13.90;;;;;;;;;;4936932;29;20058;-82
2023/08/23 05:55:02;;;;;;;29.02;14.02;;;;;;;;;;4955029;29;20054;-79
2023/08/23 05:57:34;;;;;;;29.42;13.68;;;;;;;;;;4938158;29;20384;-79
2023/08/23 06:00:10;;;;;;;27.85;14.10;;;;;;;;;;4954348;29;20043;-79
2023/08/23 06:02:41;;;;;;;26.83;13.57;;;;;;;;;;4954175;29;20399;-80
2023/08/23 06:05:13;;;;;;;25.52;14.32;;;;;;;;;;4954167;29;20047;-82
2023/08/23 06:07:45;;;;;;;28.02;13.70;;;;;;;;;;4940038;29;20055;-81
2023/08/23 06:10:16;;;;;;;28.45;13.50;;;;;;;;;;4956953;29;20058;-80
2023/08/23 06:12:48;;;;;;;29.40;13.57;;;;;;;;;;4958168;29;20051;-79
2023/08/23 06:15:18;;;;;;;25.45;12.68;;;;;;;;;;4957053;29;20598;-81
2023/08/23 06:17:50;;;;;;;25.70;13.90;;;;;;;;;;4957013;29;20527;-80
2023/08/23 06:20:23;;;;;;;26.60;14.55;;;;;;;;;;4924797;29;20414;-79
2023/08/23 06:22:58;;;;;;;26.65;14.07;;;;;;;;;;4958257;29;20059;-79
2023/08/23 06:25:29;;;;;;;28.67;13.82;;;;;;;;;;4958004;29;20055;-80
2023/08/23 06:28:00;;;;;;;30.35;14.15;;;;;;;;;;4925178;29;20394;-80
2023/08/23 06:30:56;;;;;;;;;;;;;;;;;;4958459;29;20058;-79
2023/08/23 06:33:27;;;;;;;27.50;13.18;;;;;;;;;;4940640;29;19923;-79
2023/08/23 06:35:57;;;;;;;24.52;12.52;;;;;;;;;;4957549;29;20058;-78
2023/08/23 06:38:31;;;;;;;31.00;13.65;;;;;;;;;;4957657;29;20047;-79
2023/08/23 06:41:06;;;;;;;23.75;13.07;;;;;;;;;;4939955;29;20055;-80
2023/08/23 06:43:38;;;;;;;22.17;12.07;;;;;;;;;;4939687;29;20059;-80
2023/08/23 06:46:12;;;;;;;25.75;11.40;;;;;;;;;;4956975;29;20062;-81
2023/08/23 06:48:45;;;;;;;21.75;11.98;;;;;;;;;;4939496;29;20406;-79
2023/08/23 06:51:17;;;;;;;24.38;12.85;;;;;;;;;;4940155;29;20474;-79
2023/08/23 06:53:51;;;;;;;24.80;12.05;;;;;;;;;;4957216;29;20051;-79
2023/08/23 06:56:25;;;;;;;22.92;12.05;;;;;;;;;;4957011;29;20051;-82
2023/08/23 06:58:58;;;;;;;24.05;11.88;;;;;;;;;;4957074;29;20404;-79
2023/08/23 07:01:30;;;;;;;22.17;12.40;;;;;;;;;;4957739;29;20053;-80
2023/08/23 07:04:02;;;;;;;21.00;11.38;;;;;;;;;;4923984;29;20062;-81
2023/08/23 07:06:32;;;;;;;22.50;11.85;;;;;;;;;;4957378;29;20043;-79
2023/08/23 07:09:04;;;;;;;21.88;12.00;;;;;;;;;;4956849;29;20047;-82
2023/08/23 07:11:36;;;;;;;18.88;10.55;;;;;;;;;;4955616;29;20403;-80
2023/08/23 07:14:08;;;;;;;23.30;11.80;;;;;;;;;;4939613;29;20051;-81
2023/08/23 07:16:39;;;;;;;20.40;11.63;;;;;;;;;;4940496;29;20077;-81
2023/08/23 07:19:10;;;;;;;18.83;10.85;;;;;;;;;;4938602;29;20062;-80
2023/08/23 07:21:46;;;;;;;22.73;11.50;;;;;;;;;;4956726;29;20517;-80
2023/08/23 07:24:17;;;;;;;22.52;10.90;;;;;;;;;;4938792;29;20055;-80
2023/08/23 07:26:48;;;;;;;22.27;11.23;;;;;;;;;;4956755;29;20043;-81
2023/08/23 07:29:22;;;;;;;19.75;11.02;;;;;;;;;;4956516;29;20050;-81
2023/08/23 07:31:52;;;;;;;21.45;11.95;;;;;;;;;;4955337;29;20062;-81
2023/08/23 07:34:23;;;;;;;18.63;11.20;;;;;;;;;;4939656;29;20047;-83
2023/08/23 07:36:54;;;;;;;20.45;11.07;;;;;;;;;;4957115;29;20059;-80
2023/08/23 07:39:29;;;;;;;18.75;11.35;;;;;;;;;;4938949;29;20062;-81
2023/08/23 07:42:01;;;;;;;18.55;11.13;;;;;;;;;;4938779;29;20510;-84
2023/08/23 07:44:34;;;;;;;21.48;10.80;;;;;;;;;;4956060;29;20039;-82
2023/08/23 07:47:04;;;;;;;22.10;11.10;;;;;;;;;;4956068;29;20169;-80
2023/08/23 07:49:40;;;;;;;18.20;11.05;;;;;;;;;;4956315;29;20051;-82
2023/08/23 07:52:10;;;;;;;20.95;11.98;;;;;;;;;;4939106;29;20067;-82
2023/08/23 07:54:43;;;;;;;19.55;10.82;;;;;;;;;;4939594;29;20052;-82
2023/08/23 07:57:13;;;;;;;21.05;10.43;;;;;;;;;;4939298;29;20051;-83
2023/08/23 07:59:47;;;;;;;19.90;11.52;;;;;;;;;;4956522;29;20047;-82
2023/08/23 08:02:19;;;;;;;24.75;11.20;;;;;;;;;;4955949;29;20043;-81
2023/08/23 08:04:53;;;;;;;22.45;9.98;;;;;;;;;;4955798;29;20391;-82
2023/08/23 08:07:23;;;;;;;19.35;10.77;;;;;;;;;;4938217;29;20051;-81
2023/08/23 08:10:20;;;;;;;19.83;10.38;;;;;;;;;;4956576;29;20059;-82
2023/08/23 08:12:52;;;;;;;19.17;10.40;;;;;;;;;;4938124;29;20051;-82
2023/08/23 08:15:23;;;;;;;21.15;11.10;;;;;;;;;;4907667;29;20052;-83
2023/08/23 08:17:54;;;;;;;23.90;11.15;;;;;;;;;;4955704;29;20112;-81
2023/08/23 08:20:26;;;;;;;21.95;10.40;;;;;;;;;;4938141;29;20058;-82
2023/08/23 08:23:01;;;;;;;23.77;11.85;;;;;;;;;;4954424;29;20054;-84
2023/08/23 08:25:33;;;;;;;24.25;11.02;;;;;;;;;;4923123;29;20051;-83
2023/08/23 08:28:06;;;;;;;19.38;9.98;;;;;;;;;;4939384;29;20054;-81
2023/08/23 08:30:38;;;;;;;20.25;10.98;;;;;;;;;;4936712;29;20055;-81
2023/08/23 08:33:11;;;;;;;25.92;10.55;;;;;;;;;;4922716;29;20118;-82
2023/08/23 08:35:41;;;;;;;20.70;10.32;;;;;;;;;;4955287;29;20047;-82
2023/08/23 08:38:11;;;;;;;20.58;10.90;;;;;;;;;;4938503;29;20055;-80
2023/08/23 08:40:42;;;;;;;18.83;10.25;;;;;;;;;;4938973;29;20050;-80
2023/08/23 08:43:14;;;;;;;18.60;10.75;;;;;;;;;;4938643;29;20047;-82
2023/08/23 08:45:47;;;;;;;20.17;11.02;;;;;;;;;;4937085;29;20055;-83
2023/08/23 08:48:20;;;;;;;21.50;11.05;;;;;;;;;;4955481;29;20051;-82
2023/08/23 08:50:50;;;;;;;17.20;11.07;;;;;;;;;;4955391;29;20058;-82
2023/08/23 08:53:26;;;;;;;22.17;10.23;;;;;;;;;;4938159;29;20055;-82
2023/08/23 08:56:00;;;;;;;19.52;11.00;;;;;;;;;;4955242;29;20043;-84
2023/08/23 08:58:32;;;;;;;20.20;10.38;;;;;;;;;;4938526;29;20051;-84
2023/08/23 09:01:05;;;;;;;19.25;11.32;;;;;;;;;;4955007;29;20399;-84
2023/08/23 09:03:37;;;;;;;18.95;11.07;;;;;;;;;;4954367;29;20062;-81
2023/08/23 09:06:11;;;;;;;23.67;11.00;;;;;;;;;;4937343;29;20050;-82
2023/08/23 09:08:43;;;;;;;21.40;11.20;;;;;;;;;;4953867;29;20058;-82
2023/08/23 09:11:17;;;;;;;23.73;11.30;;;;;;;;;;4938917;29;20047;-81
2023/08/23 09:13:52;;;;;;;19.30;11.48;;;;;;;;;;4937257;29;20055;-83
2023/08/23 09:16:24;;;;;;;19.70;11.38;;;;;;;;;;4955091;29;20047;-82
2023/08/23 09:18:57;;;;;;;18.40;11.52;;;;;;;;;;4937262;29;20054;-81
2023/08/23 09:21:28;;;;;;;19.17;10.57;;;;;;;;;;4954905;29;20039;-82
2023/08/23 09:24:01;;;;;;;21.23;10.90;;;;;;;;;;4954776;29;20494;-83
2023/08/23 09:26:33;;;;;;;19.40;11.20;;;;;;;;;;4954522;29;20043;-83
2023/08/23 09:29:04;;;;;;;20.90;11.57;;;;;;;;;;4954034;29;20055;-84
2023/08/23 09:31:34;;;;;;;20.08;11.35;;;;;;;;;;4953953;29;20055;-81
2023/08/23 09:34:14;;;;;;;22.92;11.70;;;;;;;;;;4953784;29;20054;-82
2023/08/23 09:36:46;;;;;;;22.55;11.48;;;;;;;;;;4953911;29;20048;-81
2023/08/23 09:39:18;;;;;;;23.25;11.25;;;;;;;;;;4954575;29;20043;-82
2023/08/23 09:41:49;;;;;;;20.75;12.45;;;;;;;;;;4939208;29;20047;-82
2023/08/23 09:44:40;;;;;;;20.83;12.15;;;;;;;;;;4941285;29;20495;-80
2023/08/23 09:47:15;;;;;;;19.63;11.45;;;;;;;;;;4957093;29;20058;-83
2023/08/23 09:49:51;;;;;;;24.08;12.43;;;;;;;;;;4958657;29;20047;-81
2023/08/23 09:52:29;;;;;;;24.23;12.35;;;;;;;;;;4958100;29;20054;-82
2023/08/23 09:55:14;;;;;;;26.25;12.25;;;;;;;;;;4958531;29;20046;-80
2023/08/23 09:57:47;;;;;;;24.33;12.75;;;;;;;;;;4940606;29;20059;-80
2023/08/23 10:00:18;;;;;;;25.17;12.27;;;;;;;;;;4942215;29;20058;-79
2023/08/23 10:02:49;;;;;;;27.30;10.82;;;;;;;;;;4958400;29;20336;-79
2023/08/23 10:05:23;;;;;;;22.65;11.45;;;;;;;;;;4958611;29;20048;-80
2023/08/23 10:07:57;;;;;;;20.42;11.68;;;;;;;;;;4940536;29;20054;-80
2023/08/23 10:10:31;;;;;;;23.30;12.05;;;;;;;;;;4958118;29;20047;-80
2023/08/23 10:13:05;;;;;;;22.00;10.88;;;;;;;;;;4950482;29;20139;-80
2023/08/23 10:15:40;;;;;;;19.58;11.55;;;;;;;;;;4920709;29;20425;-80
2023/08/23 10:18:13;;;;;;;23.00;11.50;;;;;;;;;;4920305;29;20529;-80
2023/08/23 10:20:52;;;;;;;25.70;12.15;;;;;;;;;;4945885;28;20036;-80
2023/08/23 10:23:22;;;;;;;26.50;12.32;;;;;;;;;;4922861;29;20529;-80
2023/08/23 10:25:56;;;;;;;22.10;12.30;;;;;;;;;;4937696;29;20392;-80
2023/08/23 10:28:30;;;;;;;23.75;12.18;;;;;;;;;;4921527;29;20052;-80
2023/08/23 10:31:03;;;;;;;21.52;11.90;;;;;;;;;;4944316;29;20055;-80
2023/08/23 10:33:56;;;;;;;22.20;12.18;;;;;;;;;;4948859;29;20048;-79
2023/08/23 10:36:29;;;;;;;24.58;13.13;;;;;;;;;;4929924;29;20058;-79
2023/08/23 10:39:00;;;;;;;25.88;12.45;;;;;;;;;;4954840;29;20054;-79
2023/08/23 10:41:31;;;;;;;22.20;12.50;;;;;;;;;;4961668;29;20043;-78
2023/08/23 10:44:02;;;;;;;22.77;12.63;;;;;;;;;;4961356;29;20023;-80
2023/08/23 10:46:47;;;;;;;26.50;13.07;;;;;;;;;;4944237;29;20055;-81
2023/08/23 10:49:21;;;;;;;25.42;12.48;;;;;;;;;;4936128;29;20047;-80
2023/08/23 10:51:54;;;;;;;22.77;11.98;;;;;;;;;;4956621;28;20039;-80
2023/08/23 10:54:24;;;;;;;26.85;12.43;;;;;;;;;;4955995;29;20043;-83
2023/08/23 10:57:02;;;;;;;21.25;12.15;;;;;;;;;;4938149;29;20047;-81
2023/08/23 10:59:33;;;;;;;22.17;12.30;;;;;;;;;;4955849;29;20388;-83
2023/08/23 11:02:08;;;;;;;24.52;13.27;;;;;;;;;;4954070;29;20043;-80
2023/08/23 11:04:40;;;;;;;25.40;13.05;;;;;;;;;;4955326;29;20051;-82
2023/08/23 11:07:11;;;;;;;25.48;13.35;;;;;;;;;;4956157;29;20095;-83
2023/08/23 11:09:42;;;;;;;25.60;13.30;;;;;;;;;;4955574;29;20051;-81
2023/08/23 11:12:13;;;;;;;25.48;13.13;;;;;;;;;;4955909;29;20050;-80
2023/08/23 11:14:43;;;;;;;30.92;14.02;;;;;;;;;;4937647;29;20043;-82
2023/08/23 11:17:17;;;;;;;23.05;14.50;;;;;;;;;;4938700;29;20070;-81
2023/08/23 11:19:50;;;;;;;24.48;12.02;;;;;;;;;;4955799;29;20410;-82
2023/08/23 11:22:25;;;;;;;23.30;12.90;;;;;;;;;;4956207;29;20046;-82
2023/08/23 11:24:57;;;;;;;26.75;13.50;;;;;;;;;;4955703;29;20049;-83
2023/08/23 11:27:29;;;;;;;27.88;15.93;;;;;;;;;;4954361;29;20054;-83
2023/08/23 11:30:01;;;;;;;28.27;14.93;;;;;;;;;;4956921;29;20055;-83
2023/08/23 11:32:33;;;;;;;25.30;15.05;;;;;;;;;;4957624;29;20047;-83
2023/08/23 11:35:06;;;;;;;23.77;13.07;;;;;;;;;;4939431;29;20059;-83
2023/08/23 11:37:41;;;;;;;26.42;14.00;;;;;;;;;;4940159;29;20402;-84
2023/08/23 11:40:16;;;;;;;26.48;14.63;;;;;;;;;;4938901;29;20054;-83
2023/08/23 11:42:47;;;;;;;24.88;13.90;;;;;;;;;;4956882;29;20039;-82
2023/08/23 11:45:19;;;;;;;23.08;13.93;;;;;;;;;;4932581;28;20332;-82
2023/08/23 11:47:54;;;;;;;22.85;12.65;;;;;;;;;;4942377;29;20051;-83
2023/08/23 11:50:24;;;;;;;24.02;13.18;;;;;;;;;;4934940;29;20043;-83
2023/08/23 11:52:55;;;;;;;23.15;13.35;;;;;;;;;;4953190;29;20414;-83
2023/08/23 11:55:28;;;;;;;25.35;13.73;;;;;;;;;;4954034;29;20039;-83
2023/08/23 11:58:00;;;;;;;24.52;13.27;;;;;;;;;;4929402;29;20050;-84
2023/08/23 12:00:33;;;;;;;23.77;13.82;;;;;;;;;;4915710;29;20051;-83
2023/08/23 12:03:06;;;;;;;22.42;13.85;;;;;;;;;;4936525;29;20047;-83
2023/08/23 12:05:37;;;;;;;24.02;13.48;;;;;;;;;;4950457;29;20043;-83
2023/08/23 12:08:10;;;;;;;24.13;13.65;;;;;;;;;;4954919;29;20402;-82
2023/08/23 12:10:41;;;;;;;25.40;13.57;;;;;;;;;;4952619;29;20035;-82
2023/08/23 12:13:12;;;;;;;24.08;12.35;;;;;;;;;;4955144;29;20055;-82
2023/08/23 12:16:07;;;;;;;22.02;13.00;;;;;;;;;;4943507;29;20047;-83
2023/08/23 12:18:41;;;;;;;22.73;12.70;;;;;;;;;;4954947;29;20062;-82
2023/08/23 12:21:13;;;;;;;20.38;12.88;;;;;;;;;;4956141;29;20051;-83
2023/08/23 12:23:47;;;;;;;22.23;12.98;;;;;;;;;;4937585;29;20051;-83
2023/08/23 12:26:26;;;;;;;22.85;12.48;;;;;;;;;;4955450;29;20051;-82
2023/08/23 12:28:58;;;;;;;22.17;13.00;;;;;;;;;;4953015;29;20051;-83
2023/08/23 12:31:31;;;;;;;21.25;12.20;;;;;;;;;;4935016;29;20043;-81
2023/08/23 12:34:02;;;;;;;21.60;13.07;;;;;;;;;;4936764;29;20054;-82
2023/08/23 12:36:32;;;;;;;23.92;12.77;;;;;;;;;;4954436;29;20054;-83
2023/08/23 12:39:04;;;;;;;21.15;13.18;;;;;;;;;;4937545;29;20051;-83
2023/08/23 12:41:36;;;;;;;20.25;12.68;;;;;;;;;;4954565;29;20046;-83
2023/08/23 12:44:08;;;;;;;20.52;12.68;;;;;;;;;;4954972;29;20376;-83
2023/08/23 12:46:38;;;;;;;21.70;12.23;;;;;;;;;;4948097;29;20082;-83
2023/08/23 12:49:12;;;;;;;21.25;12.93;;;;;;;;;;4934849;29;20056;-83
2023/08/23 12:51:43;;;;;;;21.33;13.25;;;;;;;;;;4935277;29;20047;-84
2023/08/23 12:54:15;;;;;;;22.83;12.15;;;;;;;;;;4936214;29;20048;-84
2023/08/23 12:56:45;;;;;;;21.40;12.13;;;;;;;;;;4936387;29;20502;-83
2023/08/23 12:59:17;;;;;;;;;;;;;;;;;;4935577;29;20043;-83
2023/08/23 13:01:48;;;;;;;19.55;12.32;;;;;;;;;;4915460;29;19923;-82
2023/08/23 13:04:18;;;;;;;19.13;12.43;;;;;;;;;;4937706;29;20052;-83
2023/08/23 13:06:50;;;;;;;24.48;12.43;;;;;;;;;;4953006;28;20048;-85
2023/08/23 13:09:24;;;;;;;23.25;13.05;;;;;;;;;;4936954;29;20051;-83
2023/08/23 13:11:56;;;;;;;23.20;12.90;;;;;;;;;;4955407;28;20058;-84
2023/08/23 13:14:31;;;;;;;19.60;12.73;;;;;;;;;;4955057;29;20051;-84
2023/08/23 13:17:01;;;;;;;20.05;12.70;;;;;;;;;;4920382;29;20066;-83
2023/08/23 13:19:39;;;;;;;;;;;;;;;;;;4954122;29;20390;-83
2023/08/23 13:22:11;;;;;;;22.70;13.02;;;;;;;;;;4955197;29;19922;-85
2023/08/23 13:24:42;;;;;;;;;;;;;;;;;;4938352;29;20074;-83
2023/08/23 13:27:13;;;;;;;22.17;13.48;;;;;;;;;;4937564;29;20301;-83
2023/08/23 13:29:45;;;;;;;21.40;12.82;;;;;;;;;;4954913;29;20043;-83
2023/08/23 13:32:20;;;;;;;22.48;12.95;;;;;;;;;;4954153;29;20051;-83
2023/08/23 13:34:57;;;;;;;23.52;13.00;;;;;;;;;;4953060;29;20066;-82
2023/08/23 13:37:28;;;;;;;20.02;13.55;;;;;;;;;;4952122;29;20043;-83
2023/08/23 13:40:00;;;;;;;19.67;12.73;;;;;;;;;;4953730;29;20043;-83
2023/08/23 14:07:11;;;;;;;20.80;13.38;;;;;;;;;;4917385;29;20099;-84
2023/08/23 14:10:58;;;;;;;24.17;13.77;;;;;;;;;;4902882;29;20555;-83
2023/08/23 14:14:00;;;;;;;20.27;11.85;;;;;;;;;;4895178;29;20525;-86
2023/08/23 14:16:34;;;;;;;24.80;14.07;;;;;;;;;;4865933;29;20049;-83
2023/08/23 14:19:07;;;;;;;21.73;13.40;;;;;;;;;;4882932;29;20087;-84
2023/08/23 14:21:37;;;;;;;18.48;13.02;;;;;;;;;;4900003;29;20043;-83
2023/08/23 14:24:24;;;;;;;19.45;12.80;;;;;;;;;;4884596;29;20063;-85
2023/08/23 14:26:56;;;;;;;27.77;13.07;;;;;;;;;;4899712;29;20065;-83
2023/08/23 14:29:30;;;;;;;20.67;13.65;;;;;;;;;;4899747;29;20056;-85
2023/08/23 14:32:50;;;;;;;22.55;12.60;;;;;;;;;;4901814;29;20060;-85
2023/08/23 14:35:24;;;;;;;25.65;13.70;;;;;;;;;;4899779;29;20165;-84
2023/08/23 14:37:56;;;;;;;18.52;12.60;;;;;;;;;;4900779;29;20049;-84
2023/08/23 14:40:33;;;;;;;21.35;12.90;;;;;;;;;;4890925;29;20125;-86
2023/08/23 14:43:04;;;;;;;19.25;12.68;;;;;;;;;;4923681;29;20040;-85
2023/08/23 14:45:37;;;;;;;20.20;12.82;;;;;;;;;;4906571;29;20056;-83
2023/08/23 14:48:12;;;;;;;20.27;12.48;;;;;;;;;;4920829;29;20044;-85
2023/08/23 14:50:43;;;;;;;20.95;13.18;;;;;;;;;;4922197;29;20044;-86
2023/08/23 14:53:19;;;;;;;20.27;12.70;;;;;;;;;;4922484;29;20400;-85
2023/08/23 14:56:27;;;;;;;22.77;14.20;;;;;;;;;;4911372;29;20060;-87
2023/08/23 15:00:03;;;;;;;21.30;13.65;;;;;;;;;;4920829;29;20036;-85
2023/08/23 15:06:27;;;;;;;19.80;12.73;;;;;;;;;;4925153;29;20044;-86
2023/08/23 15:08:58;;;;;;;20.40;13.05;;;;;;;;;;4914535;29;20059;-83
2023/08/23 15:11:30;;;;;;;18.63;12.82;;;;;;;;;;4920037;29;20040;-85
2023/08/23 15:14:02;;;;;;;20.17;12.85;;;;;;;;;;4937868;29;20063;-82
2023/08/23 15:16:33;;;;;;;19.83;12.68;;;;;;;;;;4924670;29;20484;-83
2023/08/23 15:19:21;;;;;;;21.42;13.13;;;;;;;;;;4928489;29;20056;-83
2023/08/23 15:22:18;;;;;;;18.77;12.88;;;;;;;;;;4939186;29;20393;-83
2023/08/23 15:25:03;;;;;;;27.20;13.70;;;;;;;;;;4939141;29;20055;-82